sensor_id;sensor_type;location;lat;lon;timestamp;P1;durP1;ratioP1;P2;durP2;ratioP2
43682;SDS011;29285;52.128;21.060;2022-09-01T00:04:25;2.83;;;1.02;;
43682;SDS011;29285;52.128;21.060;2022-09-01T00:09:26;0.82;;;0.65;;
43682;SDS011;29285;52.128;21.060;2022-09-01T00:14:28;1.75;;;0.90;;
43682;SDS011;29285;52.128;21.060;2022-09-01T00:19:33;2.30;;;0.95;;
43682;SDS011;29285;52.128;21.060;2022-09-01T00:24:37;1.77;;;1.30;;
43682;SDS011;29285;52.128;21.060;2022-09-01T00:29:38;1.50;;;0.70;;
43682;SDS011;29285;52.128;21.060;2022-09-01T00:34:40;4.03;;;1.02;;
43682;SDS011;29285;52.128;21.060;2022-09-01T00:39:41;1.05;;;0.60;;
43682;SDS011;29285;52.128;21.060;2022-09-01T00:44:43;1.07;;;0.60;;
43682;SDS011;29285;52.128;21.060;2022-09-01T00:49:44;1.77;;;0.60;;
43682;SDS011;29285;52.128;21.060;2022-09-01T00:54:50;2.35;;;0.85;;
43682;SDS011;29285;52.128;21.060;2022-09-01T00:59:59;1.70;;;0.90;;
43682;SDS011;29285;52.128;21.060;2022-09-01T01:05:01;3.50;;;0.65;;
43682;SDS011;29285;52.128;21.060;2022-09-01T01:10:03;1.05;;;0.70;;
43682;SDS011;29285;52.128;21.060;2022-09-01T01:15:07;0.75;;;0.50;;
43682;SDS011;29285;52.128;21.060;2022-09-01T01:20:14;1.22;;;0.82;;
43682;SDS011;29285;52.128;21.060;2022-09-01T01:25:38;1.98;;;0.65;;
43682;SDS011;29285;52.128;21.060;2022-09-01T01:30:49;3.22;;;1.05;;
43682;SDS011;29285;52.128;21.060;2022-09-01T01:35:59;1.25;;;0.95;;
43682;SDS011;29285;52.128;21.060;2022-09-01T01:41:01;1.85;;;0.70;;
43682;SDS011;29285;52.128;21.060;2022-09-01T01:46:05;2.90;;;0.90;;
43682;SDS011;29285;52.128;21.060;2022-09-01T01:51:10;1.27;;;0.60;;
43682;SDS011;29285;52.128;21.060;2022-09-01T01:56:13;1.12;;;0.60;;
43682;SDS011;29285;52.128;21.060;2022-09-01T02:01:16;2.10;;;0.93;;
43682;SDS011;29285;52.128;21.060;2022-09-01T02:06:19;1.70;;;0.80;;
43682;SDS011;29285;52.128;21.060;2022-09-01T02:11:24;1.45;;;0.60;;
43682;SDS011;29285;52.128;21.060;2022-09-01T02:16:28;3.83;;;0.80;;
43682;SDS011;29285;52.128;21.060;2022-09-01T02:21:32;1.30;;;0.60;;
43682;SDS011;29285;52.128;21.060;2022-09-01T02:26:35;1.42;;;0.62;;
43682;SDS011;29285;52.128;21.060;2022-09-01T02:31:40;2.62;;;0.80;;
43682;SDS011;29285;52.128;21.060;2022-09-01T02:36:42;1.87;;;0.60;;
43682;SDS011;29285;52.128;21.060;2022-09-01T02:41:48;2.12;;;0.50;;
43682;SDS011;29285;52.128;21.060;2022-09-01T02:46:51;2.72;;;0.98;;
43682;SDS011;29285;52.128;21.060;2022-09-01T02:51:53;1.92;;;0.80;;
43682;SDS011;29285;52.128;21.060;2022-09-01T02:56:59;3.20;;;0.70;;
43682;SDS011;29285;52.128;21.060;2022-09-01T03:02:01;1.35;;;0.80;;
43682;SDS011;29285;52.128;21.060;2022-09-01T03:07:04;0.82;;;0.68;;
43682;SDS011;29285;52.128;21.060;2022-09-01T03:12:06;1.77;;;0.60;;
43682;SDS011;29285;52.128;21.060;2022-09-01T03:17:07;2.83;;;0.70;;
43682;SDS011;29285;52.128;21.060;2022-09-01T03:22:09;2.67;;;0.68;;
43682;SDS011;29285;52.128;21.060;2022-09-01T03:27:10;2.47;;;0.60;;
43682;SDS011;29285;52.128;21.060;2022-09-01T03:32:12;2.65;;;0.78;;
43682;SDS011;29285;52.128;21.060;2022-09-01T03:37:13;3.80;;;0.70;;
43682;SDS011;29285;52.128;21.060;2022-09-01T03:42:14;2.60;;;0.70;;
43682;SDS011;29285;52.128;21.060;2022-09-01T03:47:20;1.62;;;0.80;;
43682;SDS011;29285;52.128;21.060;2022-09-01T03:52:22;1.40;;;0.90;;
43682;SDS011;29285;52.128;21.060;2022-09-01T03:57:24;1.25;;;0.57;;
43682;SDS011;29285;52.128;21.060;2022-09-01T04:02:28;2.40;;;0.80;;
43682;SDS011;29285;52.128;21.060;2022-09-01T04:07:30;0.95;;;0.60;;
43682;SDS011;29285;52.128;21.060;2022-09-01T04:12:31;2.45;;;0.85;;
43682;SDS011;29285;52.128;21.060;2022-09-01T04:17:33;2.15;;;0.88;;
43682;SDS011;29285;52.128;21.060;2022-09-01T04:22:53;4.75;;;1.35;;
43682;SDS011;29285;52.128;21.060;2022-09-01T04:27:57;3.10;;;0.57;;
43682;SDS011;29285;52.128;21.060;2022-09-01T04:32:58;2.35;;;0.98;;
43682;SDS011;29285;52.128;21.060;2022-09-01T04:38:00;1.50;;;0.50;;
43682;SDS011;29285;52.128;21.060;2022-09-01T04:43:01;1.37;;;0.80;;
43682;SDS011;29285;52.128;21.060;2022-09-01T04:48:03;1.22;;;0.85;;
43682;SDS011;29285;52.128;21.060;2022-09-01T04:53:06;1.60;;;0.90;;
43682;SDS011;29285;52.128;21.060;2022-09-01T04:58:10;3.20;;;0.95;;
43682;SDS011;29285;52.128;21.060;2022-09-01T05:03:16;3.60;;;0.80;;
43682;SDS011;29285;52.128;21.060;2022-09-01T05:08:20;1.27;;;0.80;;
43682;SDS011;29285;52.128;21.060;2022-09-01T05:13:23;3.35;;;0.50;;
43682;SDS011;29285;52.128;21.060;2022-09-01T05:18:26;2.22;;;1.05;;
43682;SDS011;29285;52.128;21.060;2022-09-01T05:23:28;3.55;;;0.88;;
43682;SDS011;29285;52.128;21.060;2022-09-01T05:28:31;2.75;;;0.70;;
43682;SDS011;29285;52.128;21.060;2022-09-01T05:33:33;2.05;;;0.85;;
43682;SDS011;29285;52.128;21.060;2022-09-01T05:38:36;1.98;;;0.80;;
43682;SDS011;29285;52.128;21.060;2022-09-01T05:43:39;3.40;;;0.80;;
43682;SDS011;29285;52.128;21.060;2022-09-01T05:48:46;2.45;;;0.70;;
43682;SDS011;29285;52.128;21.060;2022-09-01T05:53:52;2.67;;;0.70;;
43682;SDS011;29285;52.128;21.060;2022-09-01T05:58:59;2.12;;;0.70;;
43682;SDS011;29285;52.128;21.060;2022-09-01T06:04:02;7.70;;;1.17;;
43682;SDS011;29285;52.128;21.060;2022-09-01T06:09:05;8.10;;;1.72;;
43682;SDS011;29285;52.128;21.060;2022-09-01T06:14:09;3.33;;;1.00;;
43682;SDS011;29285;52.128;21.060;2022-09-01T06:19:11;2.98;;;0.80;;
43682;SDS011;29285;52.128;21.060;2022-09-01T06:24:13;2.25;;;1.17;;
43682;SDS011;29285;52.128;21.060;2022-09-01T06:29:14;1.05;;;0.60;;
43682;SDS011;29285;52.128;21.060;2022-09-01T06:34:15;3.17;;;0.60;;
43682;SDS011;29285;52.128;21.060;2022-09-01T06:39:18;2.33;;;0.70;;
43682;SDS011;29285;52.128;21.060;2022-09-01T06:44:19;2.95;;;0.75;;
43682;SDS011;29285;52.128;21.060;2022-09-01T06:49:24;1.27;;;0.40;;
43682;SDS011;29285;52.128;21.060;2022-09-01T06:54:28;2.12;;;0.80;;
43682;SDS011;29285;52.128;21.060;2022-09-01T06:59:32;1.22;;;0.60;;
43682;SDS011;29285;52.128;21.060;2022-09-01T07:04:34;1.40;;;0.90;;
43682;SDS011;29285;52.128;21.060;2022-09-01T07:09:39;5.47;;;0.50;;
43682;SDS011;29285;52.128;21.060;2022-09-01T07:14:40;1.72;;;0.70;;
43682;SDS011;29285;52.128;21.060;2022-09-01T07:19:41;2.45;;;0.72;;
43682;SDS011;29285;52.128;21.060;2022-09-01T07:24:43;2.83;;;0.45;;
43682;SDS011;29285;52.128;21.060;2022-09-01T07:29:45;1.52;;;0.40;;
43682;SDS011;29285;52.128;21.060;2022-09-01T07:34:46;1.50;;;0.37;;
43682;SDS011;29285;52.128;21.060;2022-09-01T07:39:48;1.02;;;0.40;;
43682;SDS011;29285;52.128;21.060;2022-09-01T07:44:49;3.30;;;0.45;;
43682;SDS011;29285;52.128;21.060;2022-09-01T07:49:51;3.27;;;0.50;;
43682;SDS011;29285;52.128;21.060;2022-09-01T07:54:53;0.50;;;0.42;;
43682;SDS011;29285;52.128;21.060;2022-09-01T07:59:54;1.15;;;0.57;;
43682;SDS011;29285;52.128;21.060;2022-09-01T08:04:57;1.40;;;0.50;;
43682;SDS011;29285;52.128;21.060;2022-09-01T08:09:58;4.50;;;0.47;;
43682;SDS011;29285;52.128;21.060;2022-09-01T08:15:00;1.40;;;0.40;;
43682;SDS011;29285;52.128;21.060;2022-09-01T08:20:04;0.88;;;0.33;;
43682;SDS011;29285;52.128;21.060;2022-09-01T08:25:08;0.70;;;0.30;;
43682;SDS011;29285;52.128;21.060;2022-09-01T08:30:10;0.90;;;0.30;;
43682;SDS011;29285;52.128;21.060;2022-09-01T08:35:12;1.35;;;0.30;;
43682;SDS011;29285;52.128;21.060;2022-09-01T08:40:16;1.60;;;0.53;;
43682;SDS011;29285;52.128;21.060;2022-09-01T08:45:24;2.67;;;0.50;;
43682;SDS011;29285;52.128;21.060;2022-09-01T08:50:58;16.23;;;0.80;;
43682;SDS011;29285;52.128;21.060;2022-09-01T08:56:36;2.27;;;0.30;;
43682;SDS011;29285;52.128;21.060;2022-09-01T09:01:41;1.02;;;0.53;;
43682;SDS011;29285;52.128;21.060;2022-09-01T09:12:25;0.88;;;0.40;;
43682;SDS011;29285;52.128;21.060;2022-09-01T09:17:20;3.05;;;0.60;;
43682;SDS011;29285;52.128;21.060;2022-09-01T09:22:24;2.40;;;0.80;;
43682;SDS011;29285;52.128;21.060;2022-09-01T09:27:29;1.35;;;0.40;;
43682;SDS011;29285;52.128;21.060;2022-09-01T09:32:42;6.60;;;0.70;;
43682;SDS011;29285;52.128;21.060;2022-09-01T09:43:25;1.65;;;0.60;;
43682;SDS011;29285;52.128;21.060;2022-09-01T09:48:30;1.07;;;0.50;;
43682;SDS011;29285;52.128;21.060;2022-09-01T09:53:33;1.32;;;0.53;;
43682;SDS011;29285;52.128;21.060;2022-09-01T09:58:36;1.10;;;0.60;;
43682;SDS011;29285;52.128;21.060;2022-09-01T10:03:43;1.87;;;0.40;;
43682;SDS011;29285;52.128;21.060;2022-09-01T10:08:48;1.25;;;0.40;;
43682;SDS011;29285;52.128;21.060;2022-09-01T10:13:50;1.20;;;0.45;;
43682;SDS011;29285;52.128;21.060;2022-09-01T10:18:53;2.58;;;0.47;;
43682;SDS011;29285;52.128;21.060;2022-09-01T10:24:00;0.80;;;0.45;;
43682;SDS011;29285;52.128;21.060;2022-09-01T10:34:38;1.00;;;0.42;;
43682;SDS011;29285;52.128;21.060;2022-09-01T10:40:16;3.20;;;0.57;;
43682;SDS011;29285;52.128;21.060;2022-09-01T10:50:31;2.55;;;0.40;;
43682;SDS011;29285;52.128;21.060;2022-09-01T10:55:33;1.62;;;0.20;;
43682;SDS011;29285;52.128;21.060;2022-09-01T11:00:45;0.93;;;0.33;;
43682;SDS011;29285;52.128;21.060;2022-09-01T11:16:27;1.32;;;0.45;;
43682;SDS011;29285;52.128;21.060;2022-09-01T11:21:39;9.38;;;0.80;;
43682;SDS011;29285;52.128;21.060;2022-09-01T11:26:46;2.98;;;0.37;;
43682;SDS011;29285;52.128;21.060;2022-09-01T11:31:48;6.10;;;0.50;;
43682;SDS011;29285;52.128;21.060;2022-09-01T11:36:51;1.72;;;0.82;;
43682;SDS011;29285;52.128;21.060;2022-09-01T11:47:34;2.90;;;0.45;;
43682;SDS011;29285;52.128;21.060;2022-09-01T11:52:41;0.93;;;0.23;;
43682;SDS011;29285;52.128;21.060;2022-09-01T11:57:46;0.53;;;0.40;;
43682;SDS011;29285;52.128;21.060;2022-09-01T12:02:50;1.62;;;0.42;;
43682;SDS011;29285;52.128;21.060;2022-09-01T12:07:53;2.47;;;0.50;;
43682;SDS011;29285;52.128;21.060;2022-09-01T12:13:00;2.83;;;0.50;;
43682;SDS011;29285;52.128;21.060;2022-09-01T12:18:19;1.25;;;0.60;;
43682;SDS011;29285;52.128;21.060;2022-09-01T12:23:36;1.42;;;0.40;;
43682;SDS011;29285;52.128;21.060;2022-09-01T12:28:42;1.85;;;0.40;;
43682;SDS011;29285;52.128;21.060;2022-09-01T12:33:44;0.55;;;0.37;;
43682;SDS011;29285;52.128;21.060;2022-09-01T12:38:48;2.65;;;0.70;;
43682;SDS011;29285;52.128;21.060;2022-09-01T12:43:50;3.30;;;0.40;;
43682;SDS011;29285;52.128;21.060;2022-09-01T12:48:52;2.15;;;0.50;;
43682;SDS011;29285;52.128;21.060;2022-09-01T12:53:57;2.98;;;0.47;;
43682;SDS011;29285;52.128;21.060;2022-09-01T12:59:10;0.70;;;0.50;;
43682;SDS011;29285;52.128;21.060;2022-09-01T13:09:24;1.42;;;0.40;;
43682;SDS011;29285;52.128;21.060;2022-09-01T13:14:26;0.82;;;0.42;;
43682;SDS011;29285;52.128;21.060;2022-09-01T13:19:29;0.35;;;0.35;;
43682;SDS011;29285;52.128;21.060;2022-09-01T13:24:30;1.95;;;0.50;;
43682;SDS011;29285;52.128;21.060;2022-09-01T13:29:31;2.33;;;0.40;;
43682;SDS011;29285;52.128;21.060;2022-09-01T13:34:34;2.20;;;0.33;;
43682;SDS011;29285;52.128;21.060;2022-09-01T13:39:35;1.15;;;0.40;;
43682;SDS011;29285;52.128;21.060;2022-09-01T13:44:36;1.90;;;0.60;;
43682;SDS011;29285;52.128;21.060;2022-09-01T13:49:38;2.10;;;0.23;;
43682;SDS011;29285;52.128;21.060;2022-09-01T13:54:39;0.40;;;0.20;;
43682;SDS011;29285;52.128;21.060;2022-09-01T13:59:40;1.47;;;0.40;;
43682;SDS011;29285;52.128;21.060;2022-09-01T14:04:41;1.35;;;0.40;;
43682;SDS011;29285;52.128;21.060;2022-09-01T14:09:43;1.75;;;0.60;;
43682;SDS011;29285;52.128;21.060;2022-09-01T14:14:45;2.30;;;0.93;;
43682;SDS011;29285;52.128;21.060;2022-09-01T14:19:50;1.35;;;0.30;;
43682;SDS011;29285;52.128;21.060;2022-09-01T14:24:51;3.12;;;0.35;;
43682;SDS011;29285;52.128;21.060;2022-09-01T14:29:52;2.37;;;0.42;;
43682;SDS011;29285;52.128;21.060;2022-09-01T14:34:54;2.25;;;0.60;;
43682;SDS011;29285;52.128;21.060;2022-09-01T14:39:56;2.65;;;0.62;;
43682;SDS011;29285;52.128;21.060;2022-09-01T14:44:58;2.58;;;0.70;;
43682;SDS011;29285;52.128;21.060;2022-09-01T14:50:01;0.40;;;0.23;;
43682;SDS011;29285;52.128;21.060;2022-09-01T14:55:03;0.70;;;0.30;;
43682;SDS011;29285;52.128;21.060;2022-09-01T15:00:06;1.45;;;0.40;;
43682;SDS011;29285;52.128;21.060;2022-09-01T15:05:10;0.33;;;0.30;;
43682;SDS011;29285;52.128;21.060;2022-09-01T15:10:14;1.60;;;0.60;;
43682;SDS011;29285;52.128;21.060;2022-09-01T15:15:19;0.50;;;0.42;;
43682;SDS011;29285;52.128;21.060;2022-09-01T15:20:21;1.57;;;0.53;;
43682;SDS011;29285;52.128;21.060;2022-09-01T15:25:42;10.18;;;0.65;;
43682;SDS011;29285;52.128;21.060;2022-09-01T15:30:44;1.07;;;0.40;;
43682;SDS011;29285;52.128;21.060;2022-09-01T15:35:46;0.72;;;0.50;;
43682;SDS011;29285;52.128;21.060;2022-09-01T15:40:47;0.57;;;0.20;;
43682;SDS011;29285;52.128;21.060;2022-09-01T15:45:48;3.27;;;0.50;;
43682;SDS011;29285;52.128;21.060;2022-09-01T15:50:50;2.52;;;1.32;;
43682;SDS011;29285;52.128;21.060;2022-09-01T15:55:51;1.02;;;0.40;;
43682;SDS011;29285;52.128;21.060;2022-09-01T16:00:52;6.75;;;0.60;;
43682;SDS011;29285;52.128;21.060;2022-09-01T16:05:55;1.95;;;0.40;;
43682;SDS011;29285;52.128;21.060;2022-09-01T16:10:56;1.67;;;0.30;;
43682;SDS011;29285;52.128;21.060;2022-09-01T16:26:18;1.80;;;0.33;;
43682;SDS011;29285;52.128;21.060;2022-09-01T16:31:23;1.82;;;0.50;;
43682;SDS011;29285;52.128;21.060;2022-09-01T16:42:16;9.35;;;0.93;;
43682;SDS011;29285;52.128;21.060;2022-09-01T16:58:46;1.02;;;0.42;;
43682;SDS011;29285;52.128;21.060;2022-09-01T17:09:56;1.95;;;0.42;;
43682;SDS011;29285;52.128;21.060;2022-09-01T17:15:14;1.50;;;0.50;;
43682;SDS011;29285;52.128;21.060;2022-09-01T17:20:27;3.22;;;0.50;;
43682;SDS011;29285;52.128;21.060;2022-09-01T17:25:34;4.92;;;1.00;;
43682;SDS011;29285;52.128;21.060;2022-09-01T17:30:38;0.60;;;0.35;;
43682;SDS011;29285;52.128;21.060;2022-09-01T17:36:04;1.02;;;0.57;;
43682;SDS011;29285;52.128;21.060;2022-09-01T17:41:12;1.15;;;0.70;;
43682;SDS011;29285;52.128;21.060;2022-09-01T17:46:40;0.80;;;0.60;;
43682;SDS011;29285;52.128;21.060;2022-09-01T17:51:57;3.77;;;0.57;;
43682;SDS011;29285;52.128;21.060;2022-09-01T17:57:03;1.20;;;0.40;;
43682;SDS011;29285;52.128;21.060;2022-09-01T18:02:36;1.82;;;0.55;;
43682;SDS011;29285;52.128;21.060;2022-09-01T18:07:48;2.75;;;0.62;;
43682;SDS011;29285;52.128;21.060;2022-09-01T18:12:58;2.35;;;0.72;;
43682;SDS011;29285;52.128;21.060;2022-09-01T18:23:39;2.02;;;0.70;;
43682;SDS011;29285;52.128;21.060;2022-09-01T18:28:43;4.95;;;0.82;;
43682;SDS011;29285;52.128;21.060;2022-09-01T18:55:46;2.52;;;0.95;;
43682;SDS011;29285;52.128;21.060;2022-09-01T19:01:03;6.37;;;1.00;;
43682;SDS011;29285;52.128;21.060;2022-09-01T19:22:32;5.37;;;1.00;;
43682;SDS011;29285;52.128;21.060;2022-09-01T19:28:06;4.90;;;1.02;;
43682;SDS011;29285;52.128;21.060;2022-09-01T19:33:04;2.70;;;1.12;;
43682;SDS011;29285;52.128;21.060;2022-09-01T19:43:12;1.55;;;0.95;;
43682;SDS011;29285;52.128;21.060;2022-09-01T19:53:40;2.70;;;0.95;;
43682;SDS011;29285;52.128;21.060;2022-09-01T20:04:48;3.75;;;1.25;;
43682;SDS011;29285;52.128;21.060;2022-09-01T20:10:01;1.70;;;1.05;;
43682;SDS011;29285;52.128;21.060;2022-09-01T20:15:27;3.65;;;1.40;;
43682;SDS011;29285;52.128;21.060;2022-09-01T20:20:42;2.83;;;1.30;;
43682;SDS011;29285;52.128;21.060;2022-09-01T20:25:48;5.03;;;1.37;;
43682;SDS011;29285;52.128;21.060;2022-09-01T20:31:02;2.25;;;1.40;;
43682;SDS011;29285;52.128;21.060;2022-09-01T20:36:18;0.85;;;0.82;;
43682;SDS011;29285;52.128;21.060;2022-09-01T20:47:04;3.35;;;1.75;;
43682;SDS011;29285;52.128;21.060;2022-09-01T20:57:31;4.12;;;1.07;;
43682;SDS011;29285;52.128;21.060;2022-09-01T21:02:48;5.92;;;1.20;;
43682;SDS011;29285;52.128;21.060;2022-09-01T21:24:31;3.45;;;1.42;;
43682;SDS011;29285;52.128;21.060;2022-09-01T21:29:45;12.03;;;2.17;;
43682;SDS011;29285;52.128;21.060;2022-09-01T21:34:59;3.40;;;1.67;;
43682;SDS011;29285;52.128;21.060;2022-09-01T21:40:01;1.90;;;1.20;;
43682;SDS011;29285;52.128;21.060;2022-09-01T21:45:04;4.65;;;1.95;;
43682;SDS011;29285;52.128;21.060;2022-09-01T21:50:11;3.37;;;1.72;;
43682;SDS011;29285;52.128;21.060;2022-09-01T21:55:16;1.50;;;1.35;;
43682;SDS011;29285;52.128;21.060;2022-09-01T22:00:19;4.75;;;1.85;;
43682;SDS011;29285;52.128;21.060;2022-09-01T22:05:24;4.28;;;1.55;;
43682;SDS011;29285;52.128;21.060;2022-09-01T22:10:26;2.33;;;1.70;;
43682;SDS011;29285;52.128;21.060;2022-09-01T22:15:31;6.20;;;2.08;;
43682;SDS011;29285;52.128;21.060;2022-09-01T22:20:32;3.72;;;1.65;;
43682;SDS011;29285;52.128;21.060;2022-09-01T22:25:34;5.75;;;2.02;;
43682;SDS011;29285;52.128;21.060;2022-09-01T22:30:42;1.77;;;1.57;;
43682;SDS011;29285;52.128;21.060;2022-09-01T22:35:49;2.85;;;1.85;;
43682;SDS011;29285;52.128;21.060;2022-09-01T22:40:54;3.70;;;2.00;;
43682;SDS011;29285;52.128;21.060;2022-09-01T22:45:59;3.62;;;1.62;;
43682;SDS011;29285;52.128;21.060;2022-09-01T22:51:03;3.72;;;1.77;;
43682;SDS011;29285;52.128;21.060;2022-09-01T22:56:08;4.22;;;2.20;;
43682;SDS011;29285;52.128;21.060;2022-09-01T23:01:25;3.42;;;2.30;;
43682;SDS011;29285;52.128;21.060;2022-09-01T23:06:31;11.28;;;2.42;;
43682;SDS011;29285;52.128;21.060;2022-09-01T23:11:34;1.87;;;1.60;;
43682;SDS011;29285;52.128;21.060;2022-09-01T23:16:36;2.85;;;1.92;;
43682;SDS011;29285;52.128;21.060;2022-09-01T23:21:37;2.92;;;1.75;;
43682;SDS011;29285;52.128;21.060;2022-09-01T23:26:39;2.67;;;1.77;;
43682;SDS011;29285;52.128;21.060;2022-09-01T23:31:40;4.22;;;1.92;;
43682;SDS011;29285;52.128;21.060;2022-09-01T23:36:43;3.40;;;1.65;;
43682;SDS011;29285;52.128;21.060;2022-09-01T23:41:44;4.05;;;1.87;;
43682;SDS011;29285;52.128;21.060;2022-09-01T23:46:46;3.00;;;1.92;;
43682;SDS011;29285;52.128;21.060;2022-09-01T23:51:48;3.33;;;1.37;;
43682;SDS011;29285;52.128;21.060;2022-09-01T23:56:52;2.85;;;1.92;;
